Time;durP1;ratioP1;P1;durP2;ratioP2;P2;SDS_P1;SDS_P2;PMS_P1;PMS_P2;Temp;Humidity;BMP_temperature;BMP_pressure;BME280_temperature;BME280_humidity;BME280_pressure;Samples;Min_cycle;Max_cycle;Signal;HPM_P1;HPM_P2
2023/01/29 00:02:20;;;;;;;8.57;6.53;;;;;;;;;;6163759;23;20024;-82
2023/01/29 00:04:46;;;;;;;13.75;6.55;;;;;;;;;;6242203;23;20015;-82
2023/01/29 00:07:12;;;;;;;10.68;6.43;;;;;;;;;;6189755;23;20563;-82
2023/01/29 00:09:39;;;;;;;10.88;6.45;;;;;;;;;;6215966;23;20020;-81
2023/01/29 00:12:07;;;;;;;8.05;6.53;;;;;;;;;;6214616;23;20599;-80
2023/01/29 00:14:34;;;;;;;11.43;6.53;;;;;;;;;;6189854;23;20084;-81
2023/01/29 00:17:00;;;;;;;11.90;6.25;;;;;;;;;;6192005;23;20208;-81
2023/01/29 00:19:26;;;;;;;8.98;6.93;;;;;;;;;;6193956;23;20008;-81
2023/01/29 00:21:52;;;;;;;9.00;7.07;;;;;;;;;;6193438;23;20107;-81
2023/01/29 00:24:18;;;;;;;10.10;7.22;;;;;;;;;;6203593;23;20016;-82
2023/01/29 00:26:44;;;;;;;12.55;6.82;;;;;;;;;;6201641;23;20016;-81
2023/01/29 00:29:11;;;;;;;8.73;6.60;;;;;;;;;;6197759;23;20016;-81
2023/01/29 00:31:37;;;;;;;9.80;7.70;;;;;;;;;;6165919;23;20020;-82
2023/01/29 00:34:03;;;;;;;9.00;7.38;;;;;;;;;;6216185;23;20094;-82
2023/01/29 00:36:29;;;;;;;10.05;7.00;;;;;;;;;;6212968;23;20064;-82
2023/01/29 00:39:01;;;;;;;11.90;7.55;;;;;;;;;;6187008;23;20017;-81
2023/01/29 00:47:02;;;;;;;9.93;7.55;;;;;;;;;;6211335;23;20023;-81
2023/01/29 00:49:29;;;;;;;14.18;7.72;;;;;;;;;;6211224;23;20096;-81
2023/01/29 00:54:40;;;;;;;12.10;8.48;;;;;;;;;;6212227;23;20024;-82
2023/01/29 00:57:06;;;;;;;11.18;7.95;;;;;;;;;;6187367;23;20027;-82
2023/01/29 00:59:32;;;;;;;11.50;8.32;;;;;;;;;;6186764;23;20391;-83
2023/01/29 01:04:43;;;;;;;14.52;8.63;;;;;;;;;;6211524;23;20790;-82
2023/01/29 01:07:09;;;;;;;12.23;7.93;;;;;;;;;;6188780;23;20016;-82
2023/01/29 01:12:20;;;;;;;12.75;8.30;;;;;;;;;;6192910;23;20099;-82
2023/01/29 01:14:46;;;;;;;13.27;8.27;;;;;;;;;;6189393;23;20013;-82
2023/01/29 01:17:14;;;;;;;11.32;8.48;;;;;;;;;;6189248;23;20017;-82
2023/01/29 01:19:40;;;;;;;13.57;8.73;;;;;;;;;;6213841;23;20039;-82
2023/01/29 01:22:06;;;;;;;11.18;8.45;;;;;;;;;;6189222;23;20016;-83
2023/01/29 01:24:32;;;;;;;16.10;9.27;;;;;;;;;;6195598;23;20071;-82
2023/01/29 01:26:58;;;;;;;13.20;8.45;;;;;;;;;;6201694;23;20023;-82
2023/01/29 01:29:24;;;;;;;11.15;9.15;;;;;;;;;;6203666;23;20024;-82
2023/01/29 01:31:52;;;;;;;16.52;9.00;;;;;;;;;;6231224;23;20072;-82
2023/01/29 01:34:18;;;;;;;13.43;9.20;;;;;;;;;;6205225;23;20009;-83
2023/01/29 01:36:44;;;;;;;21.17;10.40;;;;;;;;;;6224254;23;20035;-83
2023/01/29 01:39:11;;;;;;;19.10;10.60;;;;;;;;;;6215563;23;20023;-82
2023/01/29 01:41:37;;;;;;;14.90;10.55;;;;;;;;;;6215353;23;20081;-83
2023/01/29 01:44:05;;;;;;;16.67;10.38;;;;;;;;;;6215209;23;20075;-82
2023/01/29 01:46:32;;;;;;;16.20;10.52;;;;;;;;;;6216422;23;20068;-82
2023/01/29 01:49:02;;;;;;;14.25;10.55;;;;;;;;;;6215020;23;20509;-83
2023/01/29 01:51:30;;;;;;;16.48;10.52;;;;;;;;;;6215223;23;20027;-82
2023/01/29 01:53:58;;;;;;;15.30;10.63;;;;;;;;;;6215309;23;20016;-82
2023/01/29 01:56:27;;;;;;;18.02;10.43;;;;;;;;;;6215794;23;20012;-83
2023/01/29 01:58:58;;;;;;;16.48;11.25;;;;;;;;;;6216654;23;20023;-82
2023/01/29 02:01:27;;;;;;;17.33;11.02;;;;;;;;;;6191381;23;20735;-83
2023/01/29 02:09:33;;;;;;;;;;;;;;;;;;6194956;23;20012;-81
2023/01/29 02:12:00;;;;;;;19.67;10.98;;;;;;;;;;6190519;23;20673;-81
2023/01/29 02:14:26;;;;;;;18.58;11.43;;;;;;;;;;6214432;22;20067;-82
2023/01/29 02:16:53;;;;;;;16.90;12.93;;;;;;;;;;6214521;23;20047;-82
2023/01/29 02:19:42;;;;;;;20.17;11.93;;;;;;;;;;6241418;23;20054;-82
2023/01/29 02:22:21;;;;;;;18.00;12.05;;;;;;;;;;6147621;23;20028;-83
2023/01/29 02:25:09;;;;;;;15.85;11.18;;;;;;;;;;6215305;23;20019;-83
2023/01/29 02:27:35;;;;;;;18.63;12.27;;;;;;;;;;6216268;23;20024;-83
2023/01/29 02:30:01;;;;;;;22.27;12.60;;;;;;;;;;6243338;23;20067;-82
2023/01/29 02:32:33;;;;;;;19.38;12.45;;;;;;;;;;6218037;23;20020;-83
2023/01/29 02:35:28;;;;;;;17.83;12.27;;;;;;;;;;6217964;23;20055;-83
2023/01/29 02:37:58;;;;;;;19.50;12.25;;;;;;;;;;6187647;23;20016;-83
2023/01/29 02:40:37;;;;;;;22.48;12.38;;;;;;;;;;6223790;23;20016;-82
2023/01/29 02:43:21;;;;;;;19.52;13.38;;;;;;;;;;6222785;23;20465;-83
2023/01/29 02:45:55;;;;;;;20.02;13.32;;;;;;;;;;6212908;23;20016;-83
2023/01/29 02:48:21;;;;;;;;;;;;;;;;;;6214465;23;20020;-81
2023/01/29 02:50:58;;;;;;;21.88;13.43;;;;;;;;;;6215292;23;20279;-82
2023/01/29 02:53:24;;;;;;;19.35;13.75;;;;;;;;;;6190466;23;20031;-82
2023/01/29 02:55:50;;;;;;;21.60;13.57;;;;;;;;;;6193973;23;20030;-83
2023/01/29 02:58:38;;;;;;;18.70;14.25;;;;;;;;;;6192889;23;20027;-82
2023/01/29 03:01:13;;;;;;;21.15;14.05;;;;;;;;;;6216240;23;20040;-83
2023/01/29 03:03:41;;;;;;;25.15;15.60;;;;;;;;;;6216806;23;20067;-82
2023/01/29 03:06:17;;;;;;;25.75;15.25;;;;;;;;;;6215006;23;20032;-80
2023/01/29 03:08:48;;;;;;;27.15;15.80;;;;;;;;;;6216792;23;20051;-81
2023/01/29 03:11:15;;;;;;;22.30;15.93;;;;;;;;;;6218925;23;20023;-81
2023/01/29 03:13:45;;;;;;;25.70;16.58;;;;;;;;;;6180135;23;20019;-81
2023/01/29 03:16:14;;;;;;;22.85;16.50;;;;;;;;;;6231989;23;20016;-80
2023/01/29 03:18:45;;;;;;;22.27;15.57;;;;;;;;;;6236385;22;20019;-82
2023/01/29 03:32:17;;;;;;;29.92;17.92;;;;;;;;;;6243310;23;20031;-82
2023/01/29 03:34:50;;;;;;;31.05;18.52;;;;;;;;;;6191122;23;20027;-82
2023/01/29 03:37:25;;;;;;;24.92;15.65;;;;;;;;;;6215574;23;20099;-81
2023/01/29 03:39:51;;;;;;;26.42;16.95;;;;;;;;;;6189735;23;20039;-82
2023/01/29 03:42:28;;;;;;;26.63;16.83;;;;;;;;;;6213754;23;20776;-82
2023/01/29 03:45:18;;;;;;;35.05;17.75;;;;;;;;;;6190472;23;20082;-81
2023/01/29 03:47:56;;;;;;;30.40;18.55;;;;;;;;;;6204529;23;20008;-81
2023/01/29 03:50:41;;;;;;;25.10;16.38;;;;;;;;;;6188701;23;20514;-82
2023/01/29 03:53:22;;;;;;;26.40;16.10;;;;;;;;;;6215127;23;20059;-82
2023/01/29 03:55:58;;;;;;;28.25;19.33;;;;;;;;;;6215641;23;20020;-82
2023/01/29 03:58:31;;;;;;;26.98;18.00;;;;;;;;;;6215683;23;20054;-82
2023/01/29 04:01:16;;;;;;;26.90;15.45;;;;;;;;;;6214994;23;20016;-82
2023/01/29 04:04:11;;;;;;;33.70;20.65;;;;;;;;;;6217239;23;20020;-82
2023/01/29 04:06:40;;;;;;;32.58;21.35;;;;;;;;;;6197897;23;20016;-81
2023/01/29 04:09:06;;;;;;;34.80;22.13;;;;;;;;;;6215551;23;20068;-82
2023/01/29 04:11:34;;;;;;;30.60;17.35;;;;;;;;;;6191728;23;20020;-82
2023/01/29 04:14:00;;;;;;;31.67;20.50;;;;;;;;;;6215759;23;20141;-81
2023/01/29 04:16:35;;;;;;;33.80;21.38;;;;;;;;;;6244231;22;20016;-82
2023/01/29 04:19:01;;;;;;;33.53;22.60;;;;;;;;;;6242815;23;20020;-81
2023/01/29 04:21:27;;;;;;;33.83;21.42;;;;;;;;;;6214720;23;20012;-81
2023/01/29 04:23:54;;;;;;;33.53;20.27;;;;;;;;;;6216429;23;20368;-81
2023/01/29 04:26:33;;;;;;;28.50;17.27;;;;;;;;;;6191211;23;20027;-81
2023/01/29 04:29:02;;;;;;;35.28;24.13;;;;;;;;;;6190682;23;20019;-81
2023/01/29 04:31:31;;;;;;;30.30;19.17;;;;;;;;;;6216801;23;20050;-82
2023/01/29 04:34:16;;;;;;;37.88;22.58;;;;;;;;;;6215919;23;20472;-82
2023/01/29 04:36:48;;;;;;;34.67;22.38;;;;;;;;;;6193091;23;20023;-81
2023/01/29 04:39:18;;;;;;;35.03;21.20;;;;;;;;;;6194849;23;20088;-82
2023/01/29 04:41:50;;;;;;;39.40;26.30;;;;;;;;;;6246589;23;20015;-82
2023/01/29 04:44:21;;;;;;;36.95;24.38;;;;;;;;;;6248221;23;20023;-82
2023/01/29 04:47:20;;;;;;;40.00;24.67;;;;;;;;;;6245525;23;20012;-81
2023/01/29 04:49:58;;;;;;;48.10;28.45;;;;;;;;;;6165360;23;20023;-82
2023/01/29 04:52:30;;;;;;;44.50;24.73;;;;;;;;;;6187390;23;20020;-79
2023/01/29 04:55:09;;;;;;;44.15;26.77;;;;;;;;;;6216347;23;20016;-79
2023/01/29 04:57:46;;;;;;;43.42;25.90;;;;;;;;;;6193574;23;20043;-80
2023/01/29 05:00:15;;;;;;;63.50;32.25;;;;;;;;;;6220279;23;20016;-80
2023/01/29 05:02:43;;;;;;;55.75;31.73;;;;;;;;;;6199064;23;20024;-80
2023/01/29 05:05:10;;;;;;;48.85;25.77;;;;;;;;;;6252855;23;20021;-80
2023/01/29 05:07:38;;;;;;;62.00;33.00;;;;;;;;;;6231629;23;20000;-80
2023/01/29 05:10:06;;;;;;;61.28;33.85;;;;;;;;;;6209210;23;20012;-79
2023/01/29 05:12:33;;;;;;;52.75;28.55;;;;;;;;;;6227776;23;20335;-78
2023/01/29 05:15:01;;;;;;;54.97;29.73;;;;;;;;;;6209836;23;20103;-79
2023/01/29 05:17:28;;;;;;;69.18;36.33;;;;;;;;;;6209668;23;20020;-79
2023/01/29 05:19:55;;;;;;;66.30;35.53;;;;;;;;;;6235467;23;20048;-79
2023/01/29 05:22:22;;;;;;;67.22;36.13;;;;;;;;;;6182790;23;20407;-79
2023/01/29 05:24:49;;;;;;;65.53;32.78;;;;;;;;;;6208389;23;20013;-78
2023/01/29 05:30:03;;;;;;;60.83;32.67;;;;;;;;;;6235590;23;20020;-79
2023/01/29 05:32:29;;;;;;;55.78;30.52;;;;;;;;;;6238020;23;20367;-79
2023/01/29 05:34:56;;;;;;;56.47;29.25;;;;;;;;;;6237548;23;20019;-79
2023/01/29 05:37:22;;;;;;;67.50;33.40;;;;;;;;;;6204663;23;20017;-78
2023/01/29 05:39:48;;;;;;;50.95;27.83;;;;;;;;;;6204979;23;20078;-79
2023/01/29 05:42:14;;;;;;;53.72;29.17;;;;;;;;;;6180641;23;20338;-79
2023/01/29 05:44:40;;;;;;;55.88;31.58;;;;;;;;;;6180060;23;20028;-79
2023/01/29 05:47:06;;;;;;;50.88;28.45;;;;;;;;;;6177773;23;20111;-80
2023/01/29 05:49:33;;;;;;;52.17;29.88;;;;;;;;;;6177205;23;20072;-80
2023/01/29 05:51:59;;;;;;;53.58;31.92;;;;;;;;;;6205333;23;20419;-79
2023/01/29 05:54:25;;;;;;;57.08;33.00;;;;;;;;;;6183292;23;20029;-79
2023/01/29 05:56:51;;;;;;;44.80;24.70;;;;;;;;;;6179133;23;20079;-78
2023/01/29 05:59:17;;;;;;;55.50;28.48;;;;;;;;;;6180921;23;20151;-79
2023/01/29 06:01:43;;;;;;;49.72;27.90;;;;;;;;;;6205190;23;20013;-79
2023/01/29 06:04:09;;;;;;;54.08;29.98;;;;;;;;;;6178089;23;20020;-79
2023/01/29 06:06:35;;;;;;;47.50;26.55;;;;;;;;;;6198591;23;20604;-79
2023/01/29 06:09:01;;;;;;;49.08;28.23;;;;;;;;;;6201799;23;20023;-79
2023/01/29 06:11:27;;;;;;;58.47;30.17;;;;;;;;;;6180904;23;20067;-79
2023/01/29 06:13:53;;;;;;;65.18;30.55;;;;;;;;;;6178602;23;20052;-79
2023/01/29 06:16:19;;;;;;;63.92;28.05;;;;;;;;;;6177973;23;20016;-80
2023/01/29 06:18:46;;;;;;;56.58;29.17;;;;;;;;;;6174756;23;20167;-78
2023/01/29 06:21:13;;;;;;;57.15;29.48;;;;;;;;;;6203797;23;20451;-80
2023/01/29 06:23:39;;;;;;;54.67;26.83;;;;;;;;;;6205402;23;20021;-80
2023/01/29 06:26:07;;;;;;;49.50;26.33;;;;;;;;;;6179282;23;20558;-80
2023/01/29 06:28:33;;;;;;;56.03;29.38;;;;;;;;;;6204822;23;20017;-80
2023/01/29 06:31:00;;;;;;;42.90;23.85;;;;;;;;;;6202734;23;20071;-80
2023/01/29 06:33:27;;;;;;;51.65;30.38;;;;;;;;;;6201890;23;20557;-80
2023/01/29 06:35:57;;;;;;;51.80;29.35;;;;;;;;;;6177453;23;20351;-80
2023/01/29 06:38:25;;;;;;;52.67;29.05;;;;;;;;;;6201252;23;20027;-80
2023/01/29 06:40:51;;;;;;;48.30;30.00;;;;;;;;;;6201762;23;20103;-79
2023/01/29 06:43:17;;;;;;;39.95;23.65;;;;;;;;;;6204357;23;20020;-80
2023/01/29 06:45:50;;;;;;;42.95;24.25;;;;;;;;;;6203688;23;20016;-79
2023/01/29 06:48:16;;;;;;;43.90;27.38;;;;;;;;;;6188253;23;20446;-79
2023/01/29 06:50:42;;;;;;;44.95;27.17;;;;;;;;;;6220552;23;20018;-78
2023/01/29 06:53:08;;;;;;;41.67;24.42;;;;;;;;;;6199090;23;20051;-79
2023/01/29 06:55:34;;;;;;;46.78;27.02;;;;;;;;;;6226926;23;20047;-79
2023/01/29 06:58:05;;;;;;;42.78;26.77;;;;;;;;;;6223589;23;20388;-81
2023/01/29 07:00:32;;;;;;;35.08;22.17;;;;;;;;;;6180621;23;20072;-80
2023/01/29 07:03:04;;;;;;;43.90;25.95;;;;;;;;;;6207141;23;20701;-79
2023/01/29 07:05:31;;;;;;;35.90;21.63;;;;;;;;;;6203916;23;20020;-77
2023/01/29 07:07:57;;;;;;;42.30;25.63;;;;;;;;;;6175309;23;20048;-77
2023/01/29 07:10:23;;;;;;;46.13;27.42;;;;;;;;;;6201905;23;20555;-80
2023/01/29 07:12:49;;;;;;;41.97;26.92;;;;;;;;;;6151668;23;20115;-79
2023/01/29 07:15:20;;;;;;;45.17;29.35;;;;;;;;;;6203203;23;20752;-78
2023/01/29 07:18:11;;;;;;;31.98;19.25;;;;;;;;;;6178317;23;20068;-80
2023/01/29 07:20:37;;;;;;;42.42;27.10;;;;;;;;;;6202677;23;20024;-78
2023/01/29 07:23:03;;;;;;;42.33;25.60;;;;;;;;;;6202483;23;20074;-79
2023/01/29 07:25:29;;;;;;;34.15;20.40;;;;;;;;;;6176875;23;20646;-79
2023/01/29 07:27:55;;;;;;;43.25;26.30;;;;;;;;;;6202079;23;20046;-79
2023/01/29 07:30:22;;;;;;;49.65;28.35;;;;;;;;;;6174947;23;20020;-80
2023/01/29 07:32:48;;;;;;;47.47;27.60;;;;;;;;;;6201991;23;20124;-80
2023/01/29 07:35:14;;;;;;;44.95;28.77;;;;;;;;;;6202240;23;20020;-80
2023/01/29 07:37:41;;;;;;;54.28;30.50;;;;;;;;;;6221989;23;20472;-79
2023/01/29 07:40:11;;;;;;;53.03;31.13;;;;;;;;;;6182914;23;20016;-79
2023/01/29 07:42:38;;;;;;;54.25;32.13;;;;;;;;;;6208660;23;20016;-80
2023/01/29 07:45:05;;;;;;;45.10;28.63;;;;;;;;;;6208525;23;20075;-81
2023/01/29 07:47:31;;;;;;;51.25;30.73;;;;;;;;;;6183353;23;20106;-80
2023/01/29 07:49:58;;;;;;;48.15;30.83;;;;;;;;;;6209193;23;20016;-80
2023/01/29 07:52:24;;;;;;;46.30;27.48;;;;;;;;;;6210405;23;20020;-81
2023/01/29 07:54:50;;;;;;;43.03;24.60;;;;;;;;;;6210901;23;20121;-81
2023/01/29 07:57:16;;;;;;;44.45;26.92;;;;;;;;;;6161771;23;20026;-79
2023/01/29 07:59:42;;;;;;;45.20;28.30;;;;;;;;;;6210922;23;20394;-79
2023/01/29 08:02:09;;;;;;;51.63;28.23;;;;;;;;;;6185549;23;20016;-79
2023/01/29 08:04:35;;;;;;;42.60;25.42;;;;;;;;;;6210851;23;20091;-79
2023/01/29 08:07:03;;;;;;;37.58;25.40;;;;;;;;;;6208785;23;20074;-78
2023/01/29 08:09:29;;;;;;;48.90;30.98;;;;;;;;;;6208935;23;20026;-78
2023/01/29 08:11:56;;;;;;;48.85;27.60;;;;;;;;;;6209628;23;20070;-80
2023/01/29 08:14:24;;;;;;;51.17;32.10;;;;;;;;;;6209858;22;20429;-80
2023/01/29 08:16:50;;;;;;;41.25;27.85;;;;;;;;;;6157385;23;20078;-80
2023/01/29 08:19:16;;;;;;;40.00;26.30;;;;;;;;;;6208273;23;20454;-78
2023/01/29 08:21:43;;;;;;;39.65;24.75;;;;;;;;;;6208758;23;20016;-79
2023/01/29 08:24:09;;;;;;;46.35;29.92;;;;;;;;;;6209516;23;20423;-78
2023/01/29 08:26:35;;;;;;;38.53;23.90;;;;;;;;;;6210861;23;20016;-79
2023/01/29 08:29:01;;;;;;;58.75;32.08;;;;;;;;;;6245397;23;20008;-79
2023/01/29 08:31:27;;;;;;;54.15;35.17;;;;;;;;;;6197611;23;20062;-79
2023/01/29 08:33:54;;;;;;;49.55;32.17;;;;;;;;;;6230244;23;20016;-79
2023/01/29 08:36:20;;;;;;;55.40;33.30;;;;;;;;;;6184197;22;20035;-79
2023/01/29 08:38:49;;;;;;;56.00;32.67;;;;;;;;;;6200608;23;20016;-79
2023/01/29 08:41:15;;;;;;;46.75;31.65;;;;;;;;;;6184298;23;20210;-79
2023/01/29 08:43:42;;;;;;;48.83;30.98;;;;;;;;;;6207807;23;20016;-79
2023/01/29 08:46:08;;;;;;;43.47;27.17;;;;;;;;;;6184061;23;20081;-79
2023/01/29 08:48:34;;;;;;;48.70;29.63;;;;;;;;;;6161433;23;20115;-80
2023/01/29 08:51:01;;;;;;;42.53;26.90;;;;;;;;;;6154374;23;20402;-79
2023/01/29 08:53:27;;;;;;;57.05;37.42;;;;;;;;;;6183608;23;20098;-79
2023/01/29 08:55:53;;;;;;;53.90;32.60;;;;;;;;;;6208674;23;20016;-79
2023/01/29 08:58:19;;;;;;;52.28;33.55;;;;;;;;;;6208356;23;20030;-79
2023/01/29 09:00:45;;;;;;;53.42;34.78;;;;;;;;;;6182849;23;20391;-80
2023/01/29 09:03:12;;;;;;;51.88;34.85;;;;;;;;;;6183394;23;20013;-80
2023/01/29 09:05:41;;;;;;;57.08;33.00;;;;;;;;;;6209515;23;20016;-79
2023/01/29 09:08:08;;;;;;;37.05;24.33;;;;;;;;;;6183561;23;20016;-79
2023/01/29 09:10:34;;;;;;;46.53;27.05;;;;;;;;;;6207656;23;20051;-80
2023/01/29 09:13:00;;;;;;;67.82;41.97;;;;;;;;;;6182368;23;20414;-79
2023/01/29 09:15:26;;;;;;;50.03;34.28;;;;;;;;;;6182254;23;20089;-77
2023/01/29 09:17:52;;;;;;;49.28;30.15;;;;;;;;;;6180016;23;20082;-78
2023/01/29 09:20:19;;;;;;;59.47;35.15;;;;;;;;;;6205093;23;20020;-77
2023/01/29 09:22:45;;;;;;;67.70;40.75;;;;;;;;;;6180117;23;20012;-77
2023/01/29 09:25:12;;;;;;;49.55;30.52;;;;;;;;;;6204514;23;20442;-78
2023/01/29 09:27:38;;;;;;;52.72;32.47;;;;;;;;;;6204419;23;20012;-77
2023/01/29 09:30:05;;;;;;;65.13;41.10;;;;;;;;;;6207129;23;20069;-78
2023/01/29 09:32:31;;;;;;;57.03;36.28;;;;;;;;;;6206299;23;20019;-78
2023/01/29 09:34:57;;;;;;;60.50;28.63;;;;;;;;;;6182675;23;20148;-78
2023/01/29 09:37:23;;;;;;;72.35;40.60;;;;;;;;;;6182949;23;20211;-78
2023/01/29 09:39:50;;;;;;;55.40;35.70;;;;;;;;;;6206724;23;20767;-77
2023/01/29 09:42:26;;;;;;;45.50;30.40;;;;;;;;;;6232653;23;20025;-77
2023/01/29 09:45:10;;;;;;;55.38;35.15;;;;;;;;;;6233573;23;20012;-77
2023/01/29 09:47:37;;;;;;;59.40;37.85;;;;;;;;;;6205151;23;20751;-77
2023/01/29 09:50:35;;;;;;;61.03;37.25;;;;;;;;;;6206108;23;20323;-78
2023/01/29 09:53:08;;;;;;;36.30;23.60;;;;;;;;;;6132585;23;20012;-77
2023/01/29 09:55:38;;;;;;;52.58;35.67;;;;;;;;;;6207042;23;20578;-77
2023/01/29 09:58:06;;;;;;;62.30;39.10;;;;;;;;;;6206780;23;20039;-78
2023/01/29 10:00:51;;;;;;;49.17;32.90;;;;;;;;;;6182076;23;20031;-79
2023/01/29 10:03:20;;;;;;;63.13;37.50;;;;;;;;;;6207174;23;20012;-79
2023/01/29 10:05:56;;;;;;;54.22;35.15;;;;;;;;;;6209192;23;20039;-78
2023/01/29 10:08:37;;;;;;;65.50;40.65;;;;;;;;;;6183939;23;20497;-79
2023/01/29 10:11:13;;;;;;;53.78;34.95;;;;;;;;;;6213578;23;20058;-77
2023/01/29 10:13:39;;;;;;;62.40;40.05;;;;;;;;;;6221237;23;20319;-78
2023/01/29 10:16:24;;;;;;;62.28;37.22;;;;;;;;;;6222974;23;20023;-78
2023/01/29 10:19:07;;;;;;;62.83;37.17;;;;;;;;;;6230912;23;20016;-76
2023/01/29 10:21:52;;;;;;;61.80;37.03;;;;;;;;;;6254718;23;20043;-78
2023/01/29 10:24:21;;;;;;;53.63;31.77;;;;;;;;;;6233585;23;20012;-78
2023/01/29 10:26:47;;;;;;;55.40;33.80;;;;;;;;;;6182562;23;20066;-79
2023/01/29 10:29:17;;;;;;;47.88;29.83;;;;;;;;;;6234466;23;20038;-77
2023/01/29 10:31:46;;;;;;;70.57;40.90;;;;;;;;;;6207397;23;20044;-79
2023/01/29 10:34:32;;;;;;;70.45;39.17;;;;;;;;;;6181063;23;20016;-78
2023/01/29 10:36:59;;;;;;;65.07;37.15;;;;;;;;;;6181764;23;20031;-78
2023/01/29 10:39:26;;;;;;;55.17;33.35;;;;;;;;;;6179908;23;20020;-78
2023/01/29 10:41:55;;;;;;;67.43;38.55;;;;;;;;;;6182796;23;20027;-79
2023/01/29 10:44:34;;;;;;;54.70;32.10;;;;;;;;;;6207865;23;20083;-79
2023/01/29 10:47:15;;;;;;;66.30;38.75;;;;;;;;;;6206380;23;20012;-79
2023/01/29 10:49:50;;;;;;;53.92;33.67;;;;;;;;;;6208690;23;20118;-79
2023/01/29 10:52:44;;;;;;;50.75;30.02;;;;;;;;;;6182239;23;20020;-78
2023/01/29 10:55:48;;;;;;;54.53;31.45;;;;;;;;;;6235231;23;20043;-78
2023/01/29 10:58:29;;;;;;;74.78;41.38;;;;;;;;;;6091528;23;20056;-78
2023/01/29 11:00:56;;;;;;;59.60;30.98;;;;;;;;;;6117872;23;20112;-79
2023/01/29 11:03:23;;;;;;;45.03;27.67;;;;;;;;;;6168423;23;20039;-77
2023/01/29 11:05:54;;;;;;;69.15;40.45;;;;;;;;;;6206293;23;20016;-78
2023/01/29 11:08:22;;;;;;;61.47;29.85;;;;;;;;;;6209166;23;20071;-80
2023/01/29 11:10:59;;;;;;;71.07;37.13;;;;;;;;;;6237391;23;20023;-80
2023/01/29 11:13:29;;;;;;;58.28;31.88;;;;;;;;;;6186734;23;20034;-81
2023/01/29 11:15:55;;;;;;;69.60;41.22;;;;;;;;;;6214192;23;20031;-79
2023/01/29 11:18:21;;;;;;;64.75;35.30;;;;;;;;;;6189420;23;20099;-79
2023/01/29 11:20:58;;;;;;;62.78;34.63;;;;;;;;;;6186015;23;20627;-80
2023/01/29 11:23:29;;;;;;;52.00;28.92;;;;;;;;;;6185451;23;20022;-80
2023/01/29 11:25:56;;;;;;;67.80;31.98;;;;;;;;;;6211073;23;20561;-80
2023/01/29 11:28:42;;;;;;;69.32;35.28;;;;;;;;;;6210223;23;20047;-81
2023/01/29 11:31:28;;;;;;;67.53;36.50;;;;;;;;;;6214576;23;20016;-82
2023/01/29 11:34:03;;;;;;;59.38;34.58;;;;;;;;;;6192617;23;20723;-84
2023/01/29 11:36:38;;;;;;;57.45;30.73;;;;;;;;;;6194037;23;20081;-84
2023/01/29 11:39:07;;;;;;;58.83;33.05;;;;;;;;;;6219019;23;20020;-82
2023/01/29 11:41:42;;;;;;;66.75;33.30;;;;;;;;;;6216029;23;20715;-80
2023/01/29 11:44:26;;;;;;;63.40;32.10;;;;;;;;;;6212293;23;20012;-81
2023/01/29 11:46:52;;;;;;;61.08;31.33;;;;;;;;;;6215238;23;20434;-83
2023/01/29 11:49:22;;;;;;;76.65;38.60;;;;;;;;;;6215557;23;20016;-82
2023/01/29 11:51:52;;;;;;;62.97;31.95;;;;;;;;;;6192274;23;20026;-83
2023/01/29 11:54:19;;;;;;;61.58;33.67;;;;;;;;;;6244779;23;20059;-83
2023/01/29 11:56:46;;;;;;;45.88;25.67;;;;;;;;;;6200490;23;20019;-84
2023/01/29 11:59:39;;;;;;;70.97;33.60;;;;;;;;;;6204811;23;20020;-81
2023/01/29 12:02:13;;;;;;;52.85;28.15;;;;;;;;;;6224701;23;20095;-81
2023/01/29 12:04:39;;;;;;;64.95;33.17;;;;;;;;;;6209715;23;20012;-81
2023/01/29 12:07:15;;;;;;;55.22;28.25;;;;;;;;;;6259612;23;20030;-81
2023/01/29 12:09:49;;;;;;;46.15;26.48;;;;;;;;;;6212852;23;20020;-79
2023/01/29 12:12:34;;;;;;;47.40;28.20;;;;;;;;;;6186701;23;20358;-82
2023/01/29 12:15:18;;;;;;;39.92;22.10;;;;;;;;;;6211837;23;20046;-81
2023/01/29 12:17:47;;;;;;;57.80;31.65;;;;;;;;;;6186313;23;20443;-81
2023/01/29 12:20:20;;;;;;;52.08;26.92;;;;;;;;;;6212495;23;20020;-82
2023/01/29 12:23:07;;;;;;;41.50;24.30;;;;;;;;;;6214817;23;20016;-82
2023/01/29 12:25:39;;;;;;;30.67;16.80;;;;;;;;;;6147018;23;20451;-82
2023/01/29 12:28:06;;;;;;;45.03;26.02;;;;;;;;;;6188556;23;20391;-81
2023/01/29 12:30:52;;;;;;;41.25;23.80;;;;;;;;;;6208645;23;20646;-81
2023/01/29 12:33:18;;;;;;;49.00;26.50;;;;;;;;;;6181984;23;20047;-82
2023/01/29 12:35:47;;;;;;;48.92;27.17;;;;;;;;;;6205460;23;20020;-81
2023/01/29 12:38:23;;;;;;;52.22;29.02;;;;;;;;;;6208733;23;20414;-83
2023/01/29 12:40:54;;;;;;;52.03;30.63;;;;;;;;;;6210904;23;20823;-83
2023/01/29 12:43:46;;;;;;;66.07;36.13;;;;;;;;;;6189876;23;20019;-81
2023/01/29 12:46:21;;;;;;;47.92;26.30;;;;;;;;;;6213619;23;20012;-84
2023/01/29 12:48:48;;;;;;;61.53;32.92;;;;;;;;;;6245880;23;20430;-83
2023/01/29 12:51:44;;;;;;;51.22;28.98;;;;;;;;;;6195839;23;20148;-84
2023/01/29 12:54:15;;;;;;;50.10;28.73;;;;;;;;;;6201058;23;20855;-84
2023/01/29 12:56:45;;;;;;;60.50;28.25;;;;;;;;;;6219600;23;20058;-83
2023/01/29 12:59:19;;;;;;;46.08;24.75;;;;;;;;;;6243763;23;20039;-85
2023/01/29 13:01:55;;;;;;;46.85;26.58;;;;;;;;;;6218119;23;20013;-84
2023/01/29 13:04:21;;;;;;;66.57;34.00;;;;;;;;;;6218171;23;20022;-85
2023/01/29 13:06:51;;;;;;;48.67;26.08;;;;;;;;;;6216208;23;20073;-86
2023/01/29 13:09:21;;;;;;;44.65;23.33;;;;;;;;;;6191271;23;20020;-86
2023/01/29 13:11:57;;;;;;;58.95;31.75;;;;;;;;;;6217392;23;20092;-84
2023/01/29 13:14:40;;;;;;;69.57;38.97;;;;;;;;;;6216922;22;20016;-81
2023/01/29 13:17:13;;;;;;;60.63;33.17;;;;;;;;;;6192416;23;20396;-85
2023/01/29 13:19:42;;;;;;;67.18;35.40;;;;;;;;;;6175636;23;20073;-78
2023/01/29 13:22:15;;;;;;;50.47;27.02;;;;;;;;;;6177467;23;20016;-77
2023/01/29 13:24:42;;;;;;;50.60;24.40;;;;;;;;;;6201322;23;20016;-79
2023/01/29 13:27:18;;;;;;;46.92;27.55;;;;;;;;;;6231755;23;20039;-78
2023/01/29 13:29:44;;;;;;;54.25;26.90;;;;;;;;;;6181767;23;20016;-78
2023/01/29 13:32:10;;;;;;;45.75;22.45;;;;;;;;;;6182994;23;20051;-78
2023/01/29 13:34:43;;;;;;;47.92;24.40;;;;;;;;;;6179580;23;20103;-78
2023/01/29 13:37:11;;;;;;;63.42;31.92;;;;;;;;;;6205222;23;20370;-78
2023/01/29 13:39:43;;;;;;;53.35;25.30;;;;;;;;;;6205741;23;20606;-78
2023/01/29 13:42:23;;;;;;;53.33;26.27;;;;;;;;;;6204234;23;20708;-83
2023/01/29 13:44:54;;;;;;;42.75;24.27;;;;;;;;;;6205085;23;20013;-78
2023/01/29 13:47:22;;;;;;;48.67;25.88;;;;;;;;;;6210143;23;20022;-78
2023/01/29 13:50:00;;;;;;;55.67;27.98;;;;;;;;;;6206498;23;20042;-78
2023/01/29 13:52:29;;;;;;;44.42;24.77;;;;;;;;;;6230352;23;20072;-77
2023/01/29 13:55:06;;;;;;;45.25;24.30;;;;;;;;;;6234331;23;20437;-78
2023/01/29 13:57:38;;;;;;;50.67;25.02;;;;;;;;;;6205864;23;20020;-77
2023/01/29 14:00:05;;;;;;;49.22;26.48;;;;;;;;;;6204443;23;20092;-78
2023/01/29 14:02:32;;;;;;;49.67;26.67;;;;;;;;;;6205674;23;20083;-79
2023/01/29 14:05:17;;;;;;;41.35;22.55;;;;;;;;;;6205647;23;20012;-79
2023/01/29 14:07:43;;;;;;;50.40;26.63;;;;;;;;;;6202834;23;20583;-78
2023/01/29 14:10:21;;;;;;;38.47;21.77;;;;;;;;;;6181699;23;20055;-80
2023/01/29 14:12:47;;;;;;;42.85;24.20;;;;;;;;;;6234010;23;20091;-80
2023/01/29 14:15:14;;;;;;;39.50;23.05;;;;;;;;;;6183309;23;20211;-79
2023/01/29 14:17:53;;;;;;;32.38;19.08;;;;;;;;;;6207593;23;20119;-80
2023/01/29 14:20:24;;;;;;;36.53;20.08;;;;;;;;;;6208816;23;20016;-80
2023/01/29 14:22:58;;;;;;;29.30;17.60;;;;;;;;;;6183580;23;20020;-80
2023/01/29 14:25:29;;;;;;;36.22;19.58;;;;;;;;;;6181412;23;20445;-79
2023/01/29 14:27:56;;;;;;;36.08;19.85;;;;;;;;;;6205549;23;20095;-80
2023/01/29 14:30:23;;;;;;;37.58;20.98;;;;;;;;;;6229857;23;20119;-78
2023/01/29 14:32:50;;;;;;;41.78;22.88;;;;;;;;;;6179445;23;20060;-79
2023/01/29 14:35:26;;;;;;;39.00;21.80;;;;;;;;;;6180761;23;20354;-79
2023/01/29 14:37:56;;;;;;;36.10;20.88;;;;;;;;;;6204317;23;20051;-79
2023/01/29 14:40:24;;;;;;;35.75;20.27;;;;;;;;;;6201457;23;20070;-79
2023/01/29 14:43:18;;;;;;;33.58;19.50;;;;;;;;;;6178541;23;20039;-80
2023/01/29 14:45:44;;;;;;;36.38;19.50;;;;;;;;;;6191831;23;20023;-79
2023/01/29 14:48:10;;;;;;;41.13;21.63;;;;;;;;;;6201533;23;20379;-77
2023/01/29 14:50:37;;;;;;;39.42;20.05;;;;;;;;;;6229387;23;20341;-79
2023/01/29 14:53:12;;;;;;;55.20;29.17;;;;;;;;;;6202267;23;20458;-79
2023/01/29 14:55:43;;;;;;;58.35;30.55;;;;;;;;;;6202335;23;20027;-78
2023/01/29 14:58:18;;;;;;;40.65;22.30;;;;;;;;;;6179176;23;20034;-78
2023/01/29 15:00:45;;;;;;;36.25;20.83;;;;;;;;;;6203404;23;20042;-78
2023/01/29 15:03:30;;;;;;;35.75;21.60;;;;;;;;;;6203361;23;20096;-77
2023/01/29 15:05:58;;;;;;;34.63;21.33;;;;;;;;;;6205987;23;20060;-76
2023/01/29 15:08:40;;;;;;;33.70;19.77;;;;;;;;;;6204716;23;20131;-77
2023/01/29 15:14:00;;;;;;;42.83;22.75;;;;;;;;;;6204757;23;20055;-77
2023/01/29 15:16:43;;;;;;;35.00;20.40;;;;;;;;;;6204848;23;20349;-77